createdAt,value
2023-04-17T00:01:22.693Z,98136.52
2023-04-17T00:03:52.148Z,98131.06
2023-04-17T00:06:19.260Z,98131.64
2023-04-17T00:08:46.312Z,98129.19
2023-04-17T00:11:13.196Z,98127.57
2023-04-17T00:13:40.259Z,98125.33
2023-04-17T00:16:10.112Z,98127.72
2023-04-17T00:18:37.138Z,98121.97
2023-04-17T00:21:04.092Z,98125.11
2023-04-17T00:23:31.153Z,98124.09
2023-04-17T00:25:58.195Z,98127.58
2023-04-17T00:28:25.259Z,98131.02
2023-04-17T00:30:52.347Z,98129.48
2023-04-17T00:33:19.777Z,98132.09
2023-04-17T00:35:47.329Z,98132.27
2023-04-17T00:38:14.215Z,98128.89
2023-04-17T00:40:41.632Z,98134.42
2023-04-17T00:43:08.691Z,98137.45
2023-04-17T00:45:35.577Z,98140.14
2023-04-17T00:48:03.674Z,98136.88
2023-04-17T00:50:31.108Z,98141.46
2023-04-17T00:52:58.350Z,98146.07
2023-04-17T00:55:26.042Z,98145.23
2023-04-17T00:57:52.904Z,98146.18
2023-04-17T01:00:19.748Z,98148.49
2023-04-17T01:02:47.031Z,98148.70
2023-04-17T01:05:14.216Z,98146.09
2023-04-17T01:07:41.549Z,98147.92
2023-04-17T01:10:09.148Z,98149.26
2023-04-17T01:12:36.215Z,98147.14
2023-04-17T01:15:03.281Z,98143.23
2023-04-17T01:17:30.217Z,98146.32
2023-04-17T01:19:57.645Z,98144.27
2023-04-17T01:22:24.640Z,98138.05
2023-04-17T01:24:54.024Z,98139.55
2023-04-17T01:27:22.043Z,98139.39
2023-04-17T01:29:49.158Z,98134.67
2023-04-17T01:32:17.218Z,98139.00
2023-04-17T01:34:44.285Z,98140.30
2023-04-17T01:37:11.333Z,98140.20
2023-04-17T01:39:38.297Z,98135.91
2023-04-17T01:42:05.850Z,98135.98
2023-04-17T01:44:32.919Z,98134.56
2023-04-17T01:46:59.856Z,98134.89
2023-04-17T01:49:26.935Z,98124.98
2023-04-17T01:51:53.985Z,98129.67
2023-04-17T01:54:21.828Z,98124.27
2023-04-17T01:56:48.795Z,98124.56
2023-04-17T01:59:15.756Z,98119.81
2023-04-17T02:01:42.708Z,98123.02
2023-04-17T02:04:09.937Z,98114.70
2023-04-17T02:06:36.993Z,98111.95
2023-04-17T02:09:04.029Z,98111.26
2023-04-17T02:11:31.228Z,98108.01
2023-04-17T02:13:58.246Z,98107.45
2023-04-17T02:16:25.405Z,98107.40
2023-04-17T02:18:52.468Z,98101.81
2023-04-17T02:21:19.414Z,98102.63
2023-04-17T02:23:46.387Z,98101.17
2023-04-17T02:26:13.276Z,98105.27
2023-04-17T02:28:42.791Z,98103.33
2023-04-17T02:31:11.052Z,98102.50
2023-04-17T02:33:38.572Z,98101.27
2023-04-17T02:36:06.722Z,98101.32
2023-04-17T02:38:37.909Z,98098.24
2023-04-17T02:41:05.540Z,98100.25
2023-04-17T02:43:32.707Z,98102.79
2023-04-17T02:46:00.712Z,98095.73
2023-04-17T02:48:27.648Z,98097.23
2023-04-17T02:50:55.015Z,98096.09
2023-04-17T02:53:22.235Z,98097.09
2023-04-17T02:55:49.155Z,98099.69
2023-04-17T02:58:17.530Z,98097.00
2023-04-17T03:00:44.516Z,98099.80
2023-04-17T03:03:15.073Z,98096.86
2023-04-17T03:05:42.278Z,98096.34
2023-04-17T03:08:09.505Z,98098.55
2023-04-17T03:10:44.843Z,98097.46
2023-04-17T03:13:11.855Z,98096.67
2023-04-17T03:15:38.664Z,98097.66
2023-04-17T03:18:05.691Z,98098.95
2023-04-17T03:20:32.668Z,98100.03
2023-04-17T03:22:59.558Z,98097.88
2023-04-17T03:25:26.501Z,98102.98
2023-04-17T03:27:53.685Z,98104.40
2023-04-17T03:30:22.535Z,98107.57
2023-04-17T03:32:50.893Z,98103.73
2023-04-17T03:35:17.935Z,98104.20
2023-04-17T03:37:45.032Z,98110.41
2023-04-17T03:40:12.665Z,98114.95
2023-04-17T03:42:39.972Z,98114.31
2023-04-17T03:45:07.270Z,98115.08
2023-04-17T03:47:34.357Z,98118.31
2023-04-17T03:50:01.487Z,98118.66
2023-04-17T03:52:31.704Z,98119.42
2023-04-17T03:54:58.741Z,98117.88
2023-04-17T03:57:25.887Z,98123.85
2023-04-17T03:59:52.996Z,98119.29
2023-04-17T04:02:20.183Z,98123.04
2023-04-17T04:04:49.886Z,98120.72
2023-04-17T04:07:16.957Z,98119.89
2023-04-17T04:09:44.851Z,98120.52
2023-04-17T04:12:11.931Z,98118.02
2023-04-17T04:14:42.070Z,98119.52
2023-04-17T04:17:09.979Z,98120.43
2023-04-17T04:19:37.885Z,98122.46
2023-04-17T04:22:06.914Z,98121.75
2023-04-17T04:24:42.282Z,98118.13
2023-04-17T04:27:12.647Z,98125.68
2023-04-17T04:29:40.096Z,98120.38
2023-04-17T04:32:13.054Z,98121.77
2023-04-17T04:34:44.165Z,98123.02
2023-04-17T04:37:14.987Z,98120.11
2023-04-17T04:39:43.847Z,98130.32
2023-04-17T04:42:21.265Z,98121.61
2023-04-17T04:45:00.603Z,98123.47
2023-04-17T04:47:28.998Z,98126.45
2023-04-17T04:49:56.341Z,98119.83
2023-04-17T04:52:23.475Z,98123.16
2023-04-17T04:54:52.805Z,98121.36
2023-04-17T04:57:19.835Z,98127.14
2023-04-17T04:59:47.167Z,98129.02
2023-04-17T05:02:36.407Z,98131.23
2023-04-17T05:05:04.882Z,98129.00
2023-04-17T05:07:32.814Z,98127.64
2023-04-17T05:10:00.310Z,98127.63
2023-04-17T05:12:28.173Z,98127.44
2023-04-17T05:14:55.153Z,98129.02
2023-04-17T05:17:22.535Z,98129.38
2023-04-17T05:19:50.258Z,98133.25
2023-04-17T05:22:18.557Z,98138.71
2023-04-17T05:24:58.079Z,98137.21
2023-04-17T05:27:26.803Z,98137.34
2023-04-17T05:29:55.989Z,98139.54
2023-04-17T05:32:23.152Z,98140.50
2023-04-17T05:35:00.138Z,98140.98
2023-04-17T05:37:27.870Z,98147.96
2023-04-17T05:39:55.459Z,98145.48
2023-04-17T05:42:22.491Z,98149.01
2023-04-17T05:44:49.639Z,98151.63
2023-04-17T05:47:16.943Z,98149.20
2023-04-17T05:49:44.264Z,98153.12
2023-04-17T05:52:11.522Z,98152.17
2023-04-17T05:54:41.747Z,98155.41
2023-04-17T05:57:09.010Z,98157.30
2023-04-17T05:59:36.060Z,98155.76
2023-04-17T06:02:04.469Z,98159.00
2023-04-17T06:04:33.478Z,98157.15
2023-04-17T06:07:02.470Z,98159.27
2023-04-17T06:09:29.894Z,98162.01
2023-04-17T06:11:56.846Z,98155.33
2023-04-17T06:14:24.204Z,98157.09
2023-04-17T06:16:51.477Z,98160.43
2023-04-17T06:19:18.724Z,98159.98
2023-04-17T06:21:45.883Z,98162.14
2023-04-17T06:24:12.959Z,98160.40
2023-04-17T06:26:44.593Z,98162.94
2023-04-17T06:29:13.457Z,98161.05
2023-04-17T06:31:40.744Z,98157.10
2023-04-17T06:34:07.905Z,98161.14
2023-04-17T06:36:38.352Z,98166.05
2023-04-17T06:39:05.226Z,98163.94
2023-04-17T06:41:32.586Z,98164.20
2023-04-17T06:44:00.456Z,98169.41
2023-04-17T06:46:40.130Z,98169.55
2023-04-17T06:49:07.165Z,98172.48
2023-04-17T06:51:34.057Z,98172.11
2023-04-17T06:54:00.945Z,98168.67
2023-04-17T06:56:27.890Z,98172.89
2023-04-17T06:58:54.814Z,98172.33
2023-04-17T07:01:21.817Z,98176.86
2023-04-17T07:03:49.135Z,98174.87
2023-04-17T07:06:16.680Z,98176.39
2023-04-17T07:08:43.733Z,98176.06
2023-04-17T07:11:10.786Z,98174.13
2023-04-17T07:13:38.144Z,98175.84
2023-04-17T07:16:05.716Z,98169.27
2023-04-17T07:18:32.757Z,98173.80
2023-04-17T07:21:00.232Z,98172.58
2023-04-17T07:23:27.283Z,98173.25
2023-04-17T07:25:54.387Z,98169.74
2023-04-17T07:28:21.385Z,98175.06
2023-04-17T07:30:48.337Z,98177.06
2023-04-17T07:33:15.604Z,98174.23
2023-04-17T07:35:42.683Z,98172.08
2023-04-17T07:38:09.697Z,98174.75
2023-04-17T07:40:36.897Z,98177.75
2023-04-17T07:43:04.019Z,98177.16
2023-04-17T07:45:31.381Z,98176.21
2023-04-17T07:47:58.481Z,98180.54
2023-04-17T07:50:26.193Z,98177.21
2023-04-17T07:52:53.453Z,98177.79
2023-04-17T07:55:20.504Z,98177.08
2023-04-17T07:57:49.644Z,98181.66
2023-04-17T08:00:17.009Z,98176.68
2023-04-17T08:02:44.061Z,98179.67
2023-04-17T08:05:11.721Z,98177.98
2023-04-17T08:07:39.669Z,98178.64
2023-04-17T08:10:06.745Z,98184.96
2023-04-17T08:12:33.599Z,98187.90
2023-04-17T08:15:00.532Z,98187.58
2023-04-17T08:17:29.582Z,98190.33
2023-04-17T08:20:01.620Z,98186.53
2023-04-17T08:22:28.640Z,98188.61
2023-04-17T08:24:59.210Z,98179.98
2023-04-17T08:27:26.340Z,98181.91
2023-04-17T08:29:53.892Z,98186.41
2023-04-17T08:32:21.382Z,98183.65
2023-04-17T08:34:48.499Z,98184.52
2023-04-17T08:37:15.456Z,98184.60
2023-04-17T08:39:42.400Z,98188.69
2023-04-17T08:42:13.339Z,98193.11
2023-04-17T08:44:45.107Z,98190.56
2023-04-17T08:47:12.586Z,98188.24
2023-04-17T08:49:42.900Z,98190.56
2023-04-17T08:52:10.393Z,98185.29
2023-04-17T08:54:38.436Z,98184.89
2023-04-17T08:57:05.704Z,98181.65
2023-04-17T08:59:33.152Z,98183.04
2023-04-17T09:02:07.092Z,98185.23
2023-04-17T09:04:35.263Z,98183.62
2023-04-17T09:07:02.912Z,98179.57
2023-04-17T09:09:56.498Z,98179.51
2023-04-17T09:12:24.888Z,98181.58
2023-04-17T09:14:52.313Z,98180.41
2023-04-17T09:17:19.894Z,98180.06
2023-04-17T09:20:13.341Z,98178.73
2023-04-17T09:22:40.750Z,98176.97
2023-04-17T09:25:17.513Z,98184.86
2023-04-17T09:27:45.238Z,98181.09
2023-04-17T09:30:13.218Z,98183.56
2023-04-17T09:32:40.324Z,98178.99
2023-04-17T09:35:07.733Z,98180.17
2023-04-17T09:37:48.397Z,98178.27
2023-04-17T09:40:15.555Z,98179.65
2023-04-17T09:43:01.870Z,98177.97
2023-04-17T09:45:34.969Z,98176.86
2023-04-17T09:48:09.230Z,98178.78
2023-04-17T09:50:37.390Z,98178.75
2023-04-17T09:53:06.751Z,98175.74
2023-04-17T09:55:35.971Z,98174.98
2023-04-17T09:58:04.109Z,98175.57
2023-04-17T10:00:31.191Z,98177.96
2023-04-17T10:02:58.933Z,98178.68
2023-04-17T10:05:28.376Z,98178.27
2023-04-17T10:07:56.020Z,98172.39
2023-04-17T10:10:31.684Z,98174.38
2023-04-17T10:13:02.918Z,98170.52
2023-04-17T10:15:30.159Z,98173.19
2023-04-17T10:18:16.900Z,98173.27
2023-04-17T10:20:44.352Z,98173.23
2023-04-17T10:23:37.693Z,98173.35
2023-04-17T10:26:25.982Z,98172.96
2023-04-17T10:28:53.698Z,98171.04
2023-04-17T10:31:23.027Z,98170.52
2023-04-17T10:33:52.032Z,98168.66
2023-04-17T10:36:37.460Z,98168.40
2023-04-17T10:39:14.615Z,98169.17
2023-04-17T10:42:00.169Z,98167.57
2023-04-17T10:44:27.139Z,98170.63
2023-04-17T10:46:54.004Z,98167.59
2023-04-17T10:49:21.216Z,98168.16
2023-04-17T10:51:48.500Z,98168.49
2023-04-17T10:54:15.918Z,98162.65
2023-04-17T10:56:47.649Z,98163.74
2023-04-17T10:59:16.340Z,98165.89
2023-04-17T11:01:43.581Z,98169.48
2023-04-17T11:04:18.245Z,98172.14
2023-04-17T11:06:45.105Z,98168.74
2023-04-17T11:09:12.612Z,98164.98
2023-04-17T11:11:44.730Z,98159.59
2023-04-17T11:14:16.480Z,98160.77
2023-04-17T11:16:44.899Z,98155.33
2023-04-17T11:19:13.170Z,98155.73
2023-04-17T11:21:44.006Z,98150.44
2023-04-17T11:24:11.652Z,98145.94
2023-04-17T11:26:42.896Z,98146.39
2023-04-17T11:29:23.049Z,98152.02
2023-04-17T11:31:51.722Z,98150.47
2023-04-17T11:34:19.203Z,98147.39
2023-04-17T11:36:58.981Z,98142.89
2023-04-17T11:39:28.177Z,98140.77
2023-04-17T11:41:56.576Z,98135.75
2023-04-17T11:44:24.021Z,98129.36
2023-04-17T11:46:55.466Z,98127.06
2023-04-17T11:49:29.599Z,98129.45
2023-04-17T11:51:58.644Z,98131.20
2023-04-17T11:54:26.269Z,98130.66
2023-04-17T11:57:07.279Z,98126.15
2023-04-17T11:59:37.924Z,98124.91
2023-04-17T12:02:06.573Z,98122.13
2023-04-17T12:04:34.615Z,98118.17
2023-04-17T12:07:02.896Z,98115.05
2023-04-17T12:09:33.250Z,98113.11
2023-04-17T12:12:03.934Z,98110.70
2023-04-17T12:14:31.192Z,98111.05
2023-04-17T12:16:58.389Z,98110.04
2023-04-17T12:19:28.702Z,98107.17
2023-04-17T12:21:56.024Z,98101.17
2023-04-17T12:24:24.410Z,98100.27
2023-04-17T12:26:51.942Z,98096.79
2023-04-17T12:29:21.977Z,98096.53
2023-04-17T12:31:51.303Z,98098.60
2023-04-17T12:34:18.260Z,98095.73
2023-04-17T12:36:45.734Z,98094.23
2023-04-17T12:39:13.157Z,98089.14
2023-04-17T12:41:40.274Z,98079.61
2023-04-17T12:44:07.180Z,98082.30
2023-04-17T12:46:34.034Z,98087.74
2023-04-17T12:49:00.845Z,98088.08
2023-04-17T12:51:27.989Z,98087.39
2023-04-17T12:53:55.228Z,98087.30
2023-04-17T12:56:22.357Z,98085.73
2023-04-17T12:58:49.457Z,98081.48
2023-04-17T13:01:16.388Z,98086.05
2023-04-17T13:03:43.697Z,98082.82
2023-04-17T13:06:10.985Z,98074.04
2023-04-17T13:08:37.824Z,98075.95
2023-04-17T13:11:04.755Z,98076.73
2023-04-17T13:13:31.588Z,98078.02
2023-04-17T13:15:58.460Z,98074.27
2023-04-17T13:18:25.829Z,98071.95
2023-04-17T13:20:52.632Z,98066.14
2023-04-17T13:23:19.692Z,98061.33
2023-04-17T13:25:46.786Z,98062.02
2023-04-17T13:28:13.604Z,98063.33
2023-04-17T13:30:40.601Z,98063.67
2023-04-17T13:33:07.855Z,98066.36
2023-04-17T13:35:34.905Z,98061.94
2023-04-17T13:38:02.658Z,98064.61
2023-04-17T13:40:30.669Z,98063.39
2023-04-17T13:42:58.064Z,98060.36
2023-04-17T13:45:25.076Z,98061.70
2023-04-17T13:47:52.139Z,98060.48
2023-04-17T13:50:19.176Z,98053.98
2023-04-17T13:52:46.258Z,98056.09
2023-04-17T13:55:15.597Z,98052.98
2023-04-17T13:57:42.548Z,98058.30
2023-04-17T14:00:10.361Z,98057.07
2023-04-17T14:02:37.815Z,98054.81
2023-04-17T14:05:05.497Z,98056.09
2023-04-17T14:07:32.541Z,98053.55
2023-04-17T14:09:59.593Z,98054.96
2023-04-17T14:12:26.685Z,98057.02
2023-04-17T14:14:53.819Z,98056.41
2023-04-17T14:17:20.880Z,98050.77
2023-04-17T14:19:47.863Z,98052.76
2023-04-17T14:22:14.790Z,98052.88
2023-04-17T14:24:41.779Z,98052.62
2023-04-17T14:27:08.968Z,98054.27
2023-04-17T14:29:35.971Z,98049.93
2023-04-17T14:32:02.773Z,98047.27
2023-04-17T14:34:29.671Z,98048.02
2023-04-17T14:36:58.271Z,98050.17
2023-04-17T14:39:25.189Z,98045.59
2023-04-17T14:41:52.178Z,98048.14
2023-04-17T14:44:19.868Z,98049.27
2023-04-17T14:46:47.177Z,98049.60
2023-04-17T14:49:14.342Z,98047.47
2023-04-17T14:51:41.409Z,98046.53
2023-04-17T14:54:08.620Z,98043.40
2023-04-17T14:56:35.651Z,98041.77
2023-04-17T14:59:02.973Z,98033.16
2023-04-17T15:01:29.982Z,98035.40
2023-04-17T15:03:57.214Z,98029.66
2023-04-17T15:06:24.286Z,98029.35
2023-04-17T15:08:51.198Z,98030.17
2023-04-17T15:11:18.487Z,98031.92
2023-04-17T15:13:45.343Z,98031.48
2023-04-17T15:16:12.363Z,98029.79
2023-04-17T15:18:39.484Z,98029.46
2023-04-17T15:21:06.691Z,98032.61
2023-04-17T15:23:34.221Z,98032.70
2023-04-17T15:26:01.178Z,98033.19
2023-04-17T15:28:28.004Z,98035.69
2023-04-17T15:30:55.574Z,98037.08
2023-04-17T15:33:22.416Z,98036.67
2023-04-17T15:35:53.682Z,98041.89
2023-04-17T15:38:20.801Z,98040.70
2023-04-17T15:40:47.711Z,98040.66
2023-04-17T15:43:14.801Z,98043.79
2023-04-17T15:45:41.790Z,98042.90
2023-04-17T15:48:09.661Z,98046.23
2023-04-17T15:50:37.172Z,98048.27
2023-04-17T15:53:03.999Z,98046.63
2023-04-17T15:55:32.562Z,98052.42
2023-04-17T15:57:59.384Z,98054.14
2023-04-17T16:00:26.378Z,98051.88
2023-04-17T16:02:53.374Z,98052.09
2023-04-17T16:05:20.449Z,98048.58
2023-04-17T16:07:47.827Z,98049.45
2023-04-17T16:10:15.173Z,98051.29
2023-04-17T16:12:42.855Z,98050.37
2023-04-17T16:15:18.476Z,98053.33
2023-04-17T16:17:45.717Z,98054.84
2023-04-17T16:20:12.868Z,98057.91
2023-04-17T16:22:40.297Z,98060.56
2023-04-17T16:25:07.530Z,98063.69
2023-04-17T16:27:34.431Z,98063.15
2023-04-17T16:30:02.511Z,98062.98
2023-04-17T16:32:31.101Z,98060.39
2023-04-17T16:34:58.316Z,98066.11
2023-04-17T16:37:25.234Z,98073.80
2023-04-17T16:39:52.135Z,98073.26
2023-04-17T16:42:19.111Z,98074.45
2023-04-17T16:44:46.216Z,98075.89
2023-04-17T16:47:14.530Z,98078.19
2023-04-17T16:49:42.169Z,98084.08
2023-04-17T16:52:09.410Z,98081.86
2023-04-17T16:54:36.198Z,98086.07
2023-04-17T16:57:04.165Z,98088.16
2023-04-17T16:59:31.332Z,98089.83
2023-04-17T17:02:00.060Z,98089.65
2023-04-17T17:04:28.414Z,98094.73
2023-04-17T17:06:55.405Z,98091.03
2023-04-17T17:09:22.388Z,98092.27
2023-04-17T17:11:49.294Z,98097.62
2023-04-17T17:14:16.304Z,98102.88
2023-04-17T17:16:43.403Z,98104.19
2023-04-17T17:19:10.508Z,98110.32
2023-04-17T17:21:37.790Z,98112.02
2023-04-17T17:24:04.874Z,98120.48
2023-04-17T17:26:31.805Z,98124.81
2023-04-17T17:28:58.686Z,98129.91
2023-04-17T17:31:25.637Z,98137.95
2023-04-17T17:33:54.513Z,98144.72
2023-04-17T17:36:21.429Z,98147.94
2023-04-17T17:38:54.801Z,98150.87
2023-04-17T17:41:22.445Z,98157.23
2023-04-17T17:43:49.269Z,98161.55
2023-04-17T17:46:16.300Z,98165.78
2023-04-17T17:48:43.330Z,98173.30
2023-04-17T17:51:10.264Z,98172.34
2023-04-17T17:53:37.025Z,98175.74
2023-04-17T17:56:04.073Z,98177.27
2023-04-17T17:58:30.960Z,98184.65
2023-04-17T18:00:57.924Z,98184.52
2023-04-17T18:03:24.977Z,98191.08
2023-04-17T18:05:52.177Z,98194.30
2023-04-17T18:08:19.217Z,98197.29
2023-04-17T18:10:46.137Z,98195.55
2023-04-17T18:13:13.197Z,98200.46
2023-04-17T18:15:40.125Z,98202.41
2023-04-17T18:18:07.445Z,98205.73
2023-04-17T18:20:38.944Z,98205.60
2023-04-17T18:23:06.108Z,98211.86
2023-04-17T18:25:35.151Z,98212.38
2023-04-17T18:28:03.188Z,98214.14
2023-04-17T18:30:30.242Z,98213.25
2023-04-17T18:32:57.453Z,98216.42
2023-04-17T18:35:24.985Z,98216.63
2023-04-17T18:37:52.650Z,98218.19
2023-04-17T18:40:19.510Z,98219.27
2023-04-17T18:42:47.834Z,98216.91
2023-04-17T18:45:15.382Z,98216.70
2023-04-17T18:47:45.212Z,98213.79
2023-04-17T18:50:12.304Z,98213.04
2023-04-17T18:52:46.217Z,98211.42
2023-04-17T18:55:17.218Z,98210.00
2023-04-17T18:57:44.108Z,98211.77
2023-04-17T19:00:11.636Z,98209.80
2023-04-17T19:02:40.121Z,98211.50
2023-04-17T19:05:07.433Z,98211.60
2023-04-17T19:07:34.360Z,98217.66
2023-04-17T19:10:01.295Z,98223.31
2023-04-17T19:12:30.093Z,98223.77
2023-04-17T19:14:57.139Z,98229.83
2023-04-17T19:17:25.077Z,98233.33
2023-04-17T19:19:52.009Z,98236.19
2023-04-17T19:22:19.473Z,98235.63
2023-04-17T19:24:49.348Z,98240.74
2023-04-17T19:27:16.328Z,98245.05
2023-04-17T19:29:43.373Z,98243.97
2023-04-17T19:32:10.817Z,98244.12
2023-04-17T19:34:37.967Z,98247.84
2023-04-17T19:37:05.335Z,98244.66
2023-04-17T19:39:32.278Z,98245.50
2023-04-17T19:41:59.256Z,98241.16
2023-04-17T19:44:27.956Z,98239.88
2023-04-17T19:46:56.222Z,98240.95
2023-04-17T19:49:23.250Z,98237.40
2023-04-17T19:51:50.203Z,98237.40
2023-04-17T19:54:17.359Z,98238.13
2023-04-17T19:56:44.513Z,98228.39
2023-04-17T19:59:13.140Z,98228.95
2023-04-17T20:01:42.919Z,98228.73
2023-04-17T20:04:10.980Z,98229.02
2023-04-17T20:06:39.275Z,98231.71
2023-04-17T20:09:06.200Z,98237.22
2023-04-17T20:11:33.302Z,98236.45
2023-04-17T20:14:00.330Z,98238.27
2023-04-17T20:16:27.465Z,98240.64
2023-04-17T20:18:56.093Z,98234.95
2023-04-17T20:21:23.666Z,98231.58
2023-04-17T20:23:50.795Z,98232.80
2023-04-17T20:26:18.078Z,98236.77
2023-04-17T20:28:45.434Z,98234.05
2023-04-17T20:31:12.628Z,98234.74
2023-04-17T20:33:39.767Z,98235.31
2023-04-17T20:36:06.677Z,98239.50
2023-04-17T20:38:33.866Z,98238.09
2023-04-17T20:41:00.893Z,98242.48
2023-04-17T20:43:27.835Z,98240.46
2023-04-17T20:45:55.139Z,98237.92
2023-04-17T20:48:22.266Z,98238.24
2023-04-17T20:50:49.308Z,98240.73
2023-04-17T20:53:16.256Z,98244.45
2023-04-17T20:55:43.616Z,98244.07
2023-04-17T20:58:10.768Z,98243.31
2023-04-17T21:00:44.416Z,98244.61
2023-04-17T21:03:14.580Z,98251.42
2023-04-17T21:05:41.654Z,98250.83
2023-04-17T21:08:08.601Z,98252.84
2023-04-17T21:10:35.655Z,98260.67
2023-04-17T21:13:02.707Z,98255.89
2023-04-17T21:15:30.594Z,98253.13
2023-04-17T21:17:57.608Z,98258.55
2023-04-17T21:20:24.889Z,98261.14
2023-04-17T21:22:51.777Z,98262.78
2023-04-17T21:25:18.894Z,98262.91
2023-04-17T21:27:46.007Z,98261.52
2023-04-17T21:30:13.069Z,98261.36
2023-04-17T21:32:40.373Z,98261.86
2023-04-17T21:35:07.765Z,98261.44
2023-04-17T21:37:34.674Z,98256.80
2023-04-17T21:40:01.866Z,98261.98
2023-04-17T21:42:29.005Z,98262.30
2023-04-17T21:44:56.057Z,98260.15
2023-04-17T21:47:23.126Z,98263.84
2023-04-17T21:49:50.052Z,98261.98
2023-04-17T21:52:17.140Z,98257.31
2023-04-17T21:54:44.268Z,98258.54
2023-04-17T21:57:11.260Z,98261.69
2023-04-17T21:59:38.210Z,98251.63
2023-04-17T22:02:05.667Z,98252.48
2023-04-17T22:04:32.715Z,98248.41
2023-04-17T22:07:00.362Z,98247.50
2023-04-17T22:09:29.118Z,98250.31
2023-04-17T22:11:56.624Z,98253.40
2023-04-17T22:14:23.568Z,98254.77
2023-04-17T22:16:50.669Z,98256.73
2023-04-17T22:19:17.780Z,98255.65
2023-04-17T22:21:44.600Z,98259.52
2023-04-17T22:24:12.024Z,98259.58
2023-04-17T22:26:39.323Z,98263.05
2023-04-17T22:29:06.218Z,98262.20
2023-04-17T22:31:33.509Z,98263.10
2023-04-17T22:34:00.589Z,98264.27
2023-04-17T22:36:27.898Z,98262.48
2023-04-17T22:38:54.707Z,98259.16
2023-04-17T22:41:21.750Z,98261.20
2023-04-17T22:43:49.062Z,98257.23
2023-04-17T22:46:16.098Z,98261.45
2023-04-17T22:48:46.576Z,98263.48
2023-04-17T22:51:14.672Z,98260.98
2023-04-17T22:53:42.261Z,98257.02
2023-04-17T22:56:11.330Z,98257.05
2023-04-17T22:58:38.279Z,98254.30
2023-04-17T23:01:05.465Z,98255.27
2023-04-17T23:03:33.740Z,98254.80
2023-04-17T23:06:00.986Z,98250.98
2023-04-17T23:08:29.312Z,98246.05
2023-04-17T23:10:59.830Z,98243.25
2023-04-17T23:13:27.083Z,98242.20
2023-04-17T23:15:54.754Z,98239.14
2023-04-17T23:18:21.842Z,98239.08
2023-04-17T23:20:49.426Z,98233.16
2023-04-17T23:23:17.971Z,98229.98
2023-04-17T23:25:44.880Z,98232.31
2023-04-17T23:28:11.842Z,98232.91
2023-04-17T23:30:38.972Z,98232.39
2023-04-17T23:33:06.293Z,98233.67
2023-04-17T23:35:33.140Z,98235.09
2023-04-17T23:38:00.201Z,98231.45
2023-04-17T23:40:27.592Z,98233.38
2023-04-17T23:42:54.650Z,98234.38
2023-04-17T23:45:21.743Z,98234.10
2023-04-17T23:47:48.897Z,98231.08
2023-04-17T23:50:15.916Z,98230.38
2023-04-17T23:52:42.864Z,98229.53
2023-04-17T23:55:10.019Z,98228.55
2023-04-17T23:57:38.139Z,98228.08
